Seven Stars, Pennsylvania
Current Conditions -  °F | °C
As of 3:53 AM on Saturday 20 Dec 2014 (Local Time) from KSEG Reporting Station
Overcast Overcast  
Wind Chill: 30°   Ceiling: 3100
Heat Index: 30°   Visibility: 10mi
Dew Point: 19°   Wind: 3mph
Humidity: 64%   Direction: 280°W
Pressure: 30.25"   Gusts: NA
Location:  40.5551°N, 77.1135°W
Report Text: KSEG 200853Z AUTO 28003KT 10SM OVC031 M01/M07 A3025 RMK AO2 SLP250 T10111072 53013
Loading
Personal Weather Stations






























Interactive Weather Map New forecast layout! Learn more

10-Day Weather Forecast

Advertisements
Track Severe Weather on mobile